Al Rawdah — V7VM8 — position and weather

sailwx.info

Track history (hours):
 
Tides and Currents Weather Stations Pressure Air Temp Water Temp Dewpoint Dewpoint Depression Visibility Wind Speed Wind Dir Waves Ship Positions

Al Rawdah

Last reported at 2016-Dec-02 20:21 UTC. Time now 2016-Dec-11 04:23 UTC.
Position N 35°42' E 014°57'.
Warning: this ship's position is 8 days out of date.

Length 307 m; draft 13.2 m.

Type: Cargo ship. MMSI: 538004160.

Date/timePositionNaut miles runAvg speedWind from/ knotsBaromVisibWave heightAir tempDewpointWater temp
2016-Dec-02 20:21N 35°42' E 014°57'1316.5
2016-Dec-02 19:33N 35°46' E 014°42'8 1.3
2016-Dec-02 13:18N 35°49' E 014°33'0 0.0
2016-Dec-02 06:28N 35°49' E 014°33'5 5.4
2016-Dec-02 05:33N 35°46' E 014°38'8 7.9
2016-Dec-02 04:33N 35°42' E 014°30'1313.3
2016-Dec-02 03:33N 35°47' E 014°15'1514.7
2016-Dec-02 02:33N 35°57' E 014°02'1414.3
2016-Dec-02 01:33N 36°07' E 013°49'1414.3
2016-Dec-02 00:33N 36°17' E 013°37'41714.4
2016-Nov-30 19:32N 42°34' E 009°48'2115.3
2016-Nov-30 18:11N 42°54' E 009°38'2415.0
2016-Nov-30 16:34N 43°17' E 009°28'1515.2
2016-Nov-30 15:34N 43°31' E 009°21'1515.2
2016-Nov-30 14:34N 43°46' E 009°14'1515.1
2016-Nov-30 13:34N 44°00' E 009°08'1515.2
2016-Nov-30 12:34N 44°14' E 009°00'9 9.0
2016-Nov-30 11:33N 44°23' E 008°57'2 1.8
2016-Nov-30 10:29N 44°24' E 008°55'0 0.0
2016-Nov-30 09:32N 44°24' E 008°55'0 0.0
2016-Nov-30 08:32N 44°24' E 008°55'0 0.0
2016-Nov-30 07:32N 44°24' E 008°55'0 0.0
2016-Nov-30 06:32N 44°24' E 008°55'0 0.0
2016-Nov-30 05:32N 44°24' E 008°55'0 0.0
2016-Nov-30 04:32N 44°24' E 008°55'0 0.0
2016-Nov-30 03:32N 44°24' E 008°55'0 0.0
2016-Nov-30 02:32N 44°24' E 008°55'0 0.0
2016-Nov-30 01:32N 44°24' E 008°55'0 0.0
2016-Nov-30 00:32N 44°24' E 008°55'0 0.0
2016-Nov-29 23:32N 44°24' E 008°55'0 0.0
2016-Nov-29 22:32N 44°24' E 008°55'0 0.0
2016-Nov-29 21:32N 44°24' E 008°55'0 0.0
2016-Nov-29 20:32N 44°24' E 008°55'0 0.0
2016-Nov-29 19:29N 44°24' E 008°55'0 0.0
2016-Nov-29 18:29N 44°24' E 008°55'0 0.0
2016-Nov-29 17:29N 44°24' E 008°55'0 0.0
2016-Nov-29 16:29N 44°24' E 008°55'0 0.0
2016-Nov-29 15:32N 44°24' E 008°55'0 0.0
2016-Nov-29 14:32N 44°24' E 008°55'0 0.0
2016-Nov-29 13:32N 44°24' E 008°55'0 0.0
2016-Nov-29 12:32N 44°24' E 008°55'0 0.0
2016-Nov-29 11:32N 44°24' E 008°55'0 0.0
2016-Nov-29 10:32N 44°24' E 008°55'0 0.0
2016-Nov-29 09:32N 44°24' E 008°55'0 0.0
2016-Nov-29 08:32N 44°24' E 008°55'0 0.0
2016-Nov-29 07:29N 44°24' E 008°55'0 0.0
2016-Nov-29 06:29N 44°24' E 008°55'5 5.0
2016-Nov-29 05:33N 44°21' E 008°59'1 0.5
2016-Nov-29 04:33N 44°21' E 008°60'9 9.2
2016-Nov-29 03:33N 44°12' E 009°01'1414.4
2016-Nov-29 02:33N 43°58' E 009°02'1616.0
2016-Nov-29 01:33N 43°47' E 008°46'1615.8
2016-Nov-29 00:33N 43°37' E 008°29'27516.9
2016-Nov-28 08:15N 40°47' E 003°37'1217.5
2016-Nov-28 07:33N 40°39' E 003°25'1817.8
2016-Nov-28 06:34N 40°28' E 003°06'1817.8
2016-Nov-28 05:33N 40°18' E 002°47'1717.5
2016-Nov-28 04:33N 40°06' E 002°30'1817.7
2016-Nov-28 03:33N 39°56' E 002°11'1818.0
2016-Nov-28 02:33N 39°45' E 001°53'1817.5
2016-Nov-28 01:33N 39°33' E 001°35'1717.5
2016-Nov-28 00:33N 39°21' E 001°19'12217.5
2016-Nov-27 17:34N 37°46' W 000°19'1717.3
2016-Nov-27 16:33N 37°32' W 000°32'1818.0
2016-Nov-27 15:33N 37°20' W 000°49'22817.5
2016-Nov-27 02:33N 36°00' W 005°15'13 0.7
2016-Nov-26 08:18N 35°58' W 005°31'7 8.9
2016-Nov-26 07:33N 35°60' W 005°24'23517.9
2016-Nov-25 18:28N 37°22' W 000°49'1917.9
2016-Nov-25 17:25N 37°35' W 000°33'1818.5
2016-Nov-25 16:27N 37°50' W 000°20'9513.7
2016-Nov-25 09:32N 39°25' W 000°16'3 3.2
2016-Nov-25 08:32N 39°27' W 000°19'0 0.0
2016-Nov-25 07:32N 39°27' W 000°19'0 0.0
2016-Nov-25 06:32N 39°27' W 000°19'0 0.0
2016-Nov-25 05:32N 39°27' W 000°19'0 0.0
2016-Nov-25 04:32N 39°27' W 000°19'0 0.0
2016-Nov-25 03:32N 39°27' W 000°19'0 0.0
2016-Nov-25 02:32N 39°27' W 000°19'0 0.0
2016-Nov-25 01:32N 39°27' W 000°19'0 0.0
2016-Nov-25 00:32N 39°27' W 000°19'0 0.0
2016-Nov-24 23:32N 39°27' W 000°19'0 0.0
2016-Nov-24 22:32N 39°27' W 000°19'0 0.0
2016-Nov-24 21:32N 39°27' W 000°19'0 0.0
2016-Nov-24 20:32N 39°27' W 000°19'0 0.0
2016-Nov-24 19:26N 39°27' W 000°19'0 0.0
2016-Nov-24 18:32N 39°27' W 000°19'0 0.0
2016-Nov-24 17:32N 39°27' W 000°19'0 0.0
2016-Nov-24 16:32N 39°27' W 000°19'0 0.0
2016-Nov-24 15:32N 39°27' W 000°19'0 0.0
2016-Nov-24 14:32N 39°27' W 000°19'0 0.0
2016-Nov-24 13:23N 39°27' W 000°19'0 0.0
2016-Nov-24 12:32N 39°27' W 000°19'0 0.0
2016-Nov-24 11:32N 39°27' W 000°19'0 0.0
2016-Nov-24 10:32N 39°27' W 000°19'0 0.0
2016-Nov-24 09:32N 39°27' W 000°19'0 0.0
2016-Nov-24 08:32N 39°27' W 000°19'0 0.0
2016-Nov-24 07:32N 39°27' W 000°19'0 0.0
2016-Nov-24 06:32N 39°27' W 000°19'0 0.0
2016-Nov-24 05:32N 39°27' W 000°19'0 0.4
2016-Nov-24 04:34N 39°26' W 000°19'3 3.4
2016-Nov-24 03:34N 39°25' W 000°15'9 8.8
2016-Nov-24 02:33N 39°28' W 000°04'4 1.0
2016-Nov-23 22:28N 39°32' W 000°02'0 0.5
2016-Nov-23 21:34N 39°32' W 000°02'3 2.0
2016-Nov-23 20:17N 39°34' E 000°01'1 1.9
2016-Nov-23 19:33N 39°34' W 000°01'1 1.4
2016-Nov-23 18:34N 39°33' W 000°02'1 0.9
2016-Nov-23 17:29N 39°32' W 000°03'62 8.9
2016-Nov-23 10:33N 40°12' E 000°58'9 9.1
2016-Nov-23 09:33N 40°17' E 001°08'9 9.1
2016-Nov-23 08:33N 40°22' E 001°18'1111.4
2016-Nov-23 07:33N 40°28' E 001°31'1110.2
2016-Nov-23 06:31N 40°35' E 001°41'3511.8
2016-Nov-23 03:33N 41°06' E 002°03'1212.1
2016-Nov-23 02:33N 41°16' E 002°11'5 2.3
2016-Nov-23 00:31N 41°21' E 002°10'0 0.0
2016-Nov-22 23:31N 41°21' E 002°10'0 0.0
2016-Nov-22 22:31N 41°21' E 002°10'0 0.0
2016-Nov-22 20:31N 41°21' E 002°10'  
Track history (hours):
 
Tides and Currents Weather Stations Pressure Air Temp Water Temp Dewpoint Dewpoint Depression Visibility Wind Speed Wind Dir Waves Ship Positions

Al Rawdah

Last reported at 2016-Dec-02 20:21 UTC. Time now 2016-Dec-11 04:23 UTC.
Position N 35°42' E 014°57'.
Warning: this ship's position is 8 days out of date.

Length 307 m; draft 13.2 m.

Type: Cargo ship. MMSI: 538004160.

Date/timePositionNaut miles runAvg speedWind from/ knotsBaromVisibWave heightAir tempDewpointWater temp
2016-Dec-02 20:21N 35°42' E 014°57'1316.5
2016-Dec-02 19:33N 35°46' E 014°42'8 1.3
2016-Dec-02 13:18N 35°49' E 014°33'0 0.0
2016-Dec-02 06:28N 35°49' E 014°33'5 5.4
2016-Dec-02 05:33N 35°46' E 014°38'8 7.9
2016-Dec-02 04:33N 35°42' E 014°30'1313.3
2016-Dec-02 03:33N 35°47' E 014°15'1514.7
2016-Dec-02 02:33N 35°57' E 014°02'1414.3
2016-Dec-02 01:33N 36°07' E 013°49'1414.3
2016-Dec-02 00:33N 36°17' E 013°37'41714.4
2016-Nov-30 19:32N 42°34' E 009°48'2115.3
2016-Nov-30 18:11N 42°54' E 009°38'2415.0
2016-Nov-30 16:34N 43°17' E 009°28'1515.2
2016-Nov-30 15:34N 43°31' E 009°21'1515.2
2016-Nov-30 14:34N 43°46' E 009°14'1515.1
2016-Nov-30 13:34N 44°00' E 009°08'1515.2
2016-Nov-30 12:34N 44°14' E 009°00'9 9.0
2016-Nov-30 11:33N 44°23' E 008°57'2 1.8
2016-Nov-30 10:29N 44°24' E 008°55'0 0.0
2016-Nov-30 09:32N 44°24' E 008°55'0 0.0
2016-Nov-30 08:32N 44°24' E 008°55'0 0.0
2016-Nov-30 07:32N 44°24' E 008°55'0 0.0
2016-Nov-30 06:32N 44°24' E 008°55'0 0.0
2016-Nov-30 05:32N 44°24' E 008°55'0 0.0
2016-Nov-30 04:32N 44°24' E 008°55'0 0.0
2016-Nov-30 03:32N 44°24' E 008°55'0 0.0
2016-Nov-30 02:32N 44°24' E 008°55'0 0.0
2016-Nov-30 01:32N 44°24' E 008°55'0 0.0
2016-Nov-30 00:32N 44°24' E 008°55'0 0.0
2016-Nov-29 23:32N 44°24' E 008°55'0 0.0
2016-Nov-29 22:32N 44°24' E 008°55'0 0.0
2016-Nov-29 21:32N 44°24' E 008°55'0 0.0
2016-Nov-29 20:32N 44°24' E 008°55'0 0.0
2016-Nov-29 19:29N 44°24' E 008°55'0 0.0
2016-Nov-29 18:29N 44°24' E 008°55'0 0.0
2016-Nov-29 17:29N 44°24' E 008°55'0 0.0
2016-Nov-29 16:29N 44°24' E 008°55'0 0.0
2016-Nov-29 15:32N 44°24' E 008°55'0 0.0
2016-Nov-29 14:32N 44°24' E 008°55'0 0.0
2016-Nov-29 13:32N 44°24' E 008°55'0 0.0
2016-Nov-29 12:32N 44°24' E 008°55'0 0.0
2016-Nov-29 11:32N 44°24' E 008°55'0 0.0
2016-Nov-29 10:32N 44°24' E 008°55'0 0.0
2016-Nov-29 09:32N 44°24' E 008°55'0 0.0
2016-Nov-29 08:32N 44°24' E 008°55'0 0.0
2016-Nov-29 07:29N 44°24' E 008°55'0 0.0
2016-Nov-29 06:29N 44°24' E 008°55'5 5.0
2016-Nov-29 05:33N 44°21' E 008°59'1 0.5
2016-Nov-29 04:33N 44°21' E 008°60'9 9.2
2016-Nov-29 03:33N 44°12' E 009°01'1414.4
2016-Nov-29 02:33N 43°58' E 009°02'1616.0
2016-Nov-29 01:33N 43°47' E 008°46'1615.8
2016-Nov-29 00:33N 43°37' E 008°29'27516.9
2016-Nov-28 08:15N 40°47' E 003°37'1217.5
2016-Nov-28 07:33N 40°39' E 003°25'1817.8
2016-Nov-28 06:34N 40°28' E 003°06'1817.8
2016-Nov-28 05:33N 40°18' E 002°47'1717.5
2016-Nov-28 04:33N 40°06' E 002°30'1817.7
2016-Nov-28 03:33N 39°56' E 002°11'1818.0
2016-Nov-28 02:33N 39°45' E 001°53'1817.5
2016-Nov-28 01:33N 39°33' E 001°35'1717.5
2016-Nov-28 00:33N 39°21' E 001°19'12217.5
2016-Nov-27 17:34N 37°46' W 000°19'1717.3
2016-Nov-27 16:33N 37°32' W 000°32'1818.0
2016-Nov-27 15:33N 37°20' W 000°49'22817.5
2016-Nov-27 02:33N 36°00' W 005°15'13 0.7
2016-Nov-26 08:18N 35°58' W 005°31'7 8.9
2016-Nov-26 07:33N 35°60' W 005°24'23517.9
2016-Nov-25 18:28N 37°22' W 000°49'1917.9
2016-Nov-25 17:25N 37°35' W 000°33'1818.5
2016-Nov-25 16:27N 37°50' W 000°20'9513.7
2016-Nov-25 09:32N 39°25' W 000°16'3 3.2
2016-Nov-25 08:32N 39°27' W 000°19'0 0.0
2016-Nov-25 07:32N 39°27' W 000°19'0 0.0
2016-Nov-25 06:32N 39°27' W 000°19'0 0.0
2016-Nov-25 05:32N 39°27' W 000°19'0 0.0
2016-Nov-25 04:32N 39°27' W 000°19'0 0.0
2016-Nov-25 03:32N 39°27' W 000°19'0 0.0
2016-Nov-25 02:32N 39°27' W 000°19'0 0.0
2016-Nov-25 01:32N 39°27' W 000°19'0 0.0
2016-Nov-25 00:32N 39°27' W 000°19'0 0.0
2016-Nov-24 23:32N 39°27' W 000°19'0 0.0
2016-Nov-24 22:32N 39°27' W 000°19'0 0.0
2016-Nov-24 21:32N 39°27' W 000°19'0 0.0
2016-Nov-24 20:32N 39°27' W 000°19'0 0.0
2016-Nov-24 19:26N 39°27' W 000°19'0 0.0
2016-Nov-24 18:32N 39°27' W 000°19'0 0.0
2016-Nov-24 17:32N 39°27' W 000°19'0 0.0
2016-Nov-24 16:32N 39°27' W 000°19'0 0.0
2016-Nov-24 15:32N 39°27' W 000°19'0 0.0
2016-Nov-24 14:32N 39°27' W 000°19'0 0.0
2016-Nov-24 13:23N 39°27' W 000°19'0 0.0
2016-Nov-24 12:32N 39°27' W 000°19'0 0.0
2016-Nov-24 11:32N 39°27' W 000°19'0 0.0
2016-Nov-24 10:32N 39°27' W 000°19'0 0.0
2016-Nov-24 09:32N 39°27' W 000°19'0 0.0
2016-Nov-24 08:32N 39°27' W 000°19'0 0.0
2016-Nov-24 07:32N 39°27' W 000°19'0 0.0
2016-Nov-24 06:32N 39°27' W 000°19'0 0.0
2016-Nov-24 05:32N 39°27' W 000°19'0 0.4
2016-Nov-24 04:34N 39°26' W 000°19'3 3.4
2016-Nov-24 03:34N 39°25' W 000°15'9 8.8
2016-Nov-24 02:33N 39°28' W 000°04'4 1.0
2016-Nov-23 22:28N 39°32' W 000°02'0 0.5
2016-Nov-23 21:34N 39°32' W 000°02'3 2.0
2016-Nov-23 20:17N 39°34' E 000°01'1 1.9
2016-Nov-23 19:33N 39°34' W 000°01'1 1.4
2016-Nov-23 18:34N 39°33' W 000°02'1 0.9
2016-Nov-23 17:29N 39°32' W 000°03'62 8.9
2016-Nov-23 10:33N 40°12' E 000°58'9 9.1
2016-Nov-23 09:33N 40°17' E 001°08'9 9.1
2016-Nov-23 08:33N 40°22' E 001°18'1111.4
2016-Nov-23 07:33N 40°28' E 001°31'1110.2
2016-Nov-23 06:31N 40°35' E 001°41'3511.8
2016-Nov-23 03:33N 41°06' E 002°03'1212.1
2016-Nov-23 02:33N 41°16' E 002°11'5 2.3
2016-Nov-23 00:31N 41°21' E 002°10'0 0.0
2016-Nov-22 23:31N 41°21' E 002°10'0 0.0
2016-Nov-22 22:31N 41°21' E 002°10'0 0.0
2016-Nov-22 20:31N 41°21' E 002°10'  

Dump ship's entire track history